Anita, PA

11:11 AM EDT on October 21, 2014 (GMT -0400)
Holly Terrace | Change Station
CLOSE
Current Station
Personal Weather Station
Location: Falls Creek, PA
Elevation: 1473 ft
Nearby Weather Stations

Elev 1473 ft 41.14 °N, 78.81 °W | Updated 2 seconds ago

Light Rain
Light Rain
51.1 °F
Feels Like 51.1 °F
N
1.0
Wind Variable Wind from SSE
Gusts 2.0 mph

Today
High -- | Low -- °F
--% Chance of Precip.
Yesterday
High -- | Low -- °F
Precip. -- in
7:33 AM 6:25 PM
Waning Crescent, 5% visible
Pressure 29.86 in
Visibility 7.0 miles
Clouds Scattered Clouds 600 ft
Overcast 1000 ft
Dew Point 50 °F
Humidity 97%
Rainfall 0.14 in
Snow Depth Not available.
UV 1 out of 12
Pollen .30 out of 12
Air Quality Not available.
Flu Activity Sporadic
METAR KDUJ 211453Z AUTO 00000KT 7SM -RA SCT006 OVC010 10/09 A2985 RMK AO2 RAB53 SLP111 P0000 60000 T01000089 51007

More Conditions Fewer Conditions

Pressure 29.86 in
Visibility 7.0 miles
Clouds Scattered Clouds 600 ft
Overcast 1000 ft
Dew Point 50 °F
Humidity 97%
Rainfall 0.14 in
Snow Depth Not available.
UV 1 out of 12
Pollen .30 out of 12
Air Quality Not available.
Flu Activity Sporadic
METAR KDUJ 211453Z AUTO 00000KT 7SM -RA SCT006 OVC010 10/09 A2985 RMK AO2 RAB53 SLP111 P0000 60000 T01000089 51007

More Conditions Fewer Conditions

10-Day Weather Forecast

Almanac

Astronomy

Oct. 21, 2014 Rise Set
Actual Time 7:33 AM EDT 6:25 PM EDT
Civil Twilight 7:05 AM EDT 6:53 PM EDT
Nautical Twilight 6:33 AM EDT 7:25 PM EDT
Astronomical Twilight 6:01 AM EDT 7:57 PM EDT
Moon 5:15 AM EDT 5:19 PM EDT
Length of Visible Light 11h 47m
Length of Day
10h 51m
Tomorrow will be 2m 35s shorter.
Waning Crescent, 5% of the Moon is Illuminated
Today
Waning Crescent
Oct 23
New
Oct 30
First Quarter
Nov 6
Full
Nov 14
Last Quarter

Today's Extremes

State Highs State Lows

Community

WunderPhotos

Upload Photos

1,763,684 photos uploaded!

WunderBlogs® & News

By Dr. Jeff Masters
Director of Meteorology, Weather Underground
By Kari Strenfel
Meteorologist, Weather Underground
By Christopher C. Burt
Weather Historian, Weather Underground
October 21, 2014
October 21, 2014
October 21, 2014

Nearby

Snow Depth

Station Depth Elevation
No new snow has been reported.

Earthquake Activity

City Distance Mag. Time & Date
No recent earthquake activity has been reported nearby.
Minimum magnitude displayed is 2.5.

Coastal Water Temperatures

Place Temperature
No Stations Reporting

Nearby Weather Stations